Time;durP1;ratioP1;P1;durP2;ratioP2;P2;SDS_P1;SDS_P2;PMS_P1;PMS_P2;Temp;Humidity;BMP_temperature;BMP_pressure;BME280_temperature;BME280_humidity;BME280_pressure;Samples;Min_cycle;Max_cycle;Signal;HPM_P1;HPM_P2
2022/11/18 00:01:22;;;;;;;13.15;8.60;;;;;;;4.40;100.00;96777.41;4204988;28;20062;-74
2022/11/18 00:03:22;;;;;;;21.33;9.30;;;;;;;4.41;100.00;96764.50;4205597;28;20135;-73
2022/11/18 00:05:23;;;;;;;13.43;7.88;;;;;;;4.40;100.00;96765.66;4205360;28;20090;-74
2022/11/18 00:07:23;;;;;;;13.27;8.10;;;;;;;4.38;100.00;96771.50;4205150;28;20070;-74
2022/11/18 00:09:23;;;;;;;13.38;8.07;;;;;;;4.39;100.00;96766.81;4205282;28;20133;-74
2022/11/18 00:16:05;;;;;;;9.73;5.97;;;;;;;4.37;100.00;96766.41;4204434;28;20047;-73
2022/11/18 00:18:05;;;;;;;;;;;;;;;4.40;100.00;96776.59;4205307;28;20119;-73
2022/11/18 00:20:06;;;;;;;8.35;6.20;;;;;;;4.37;100.00;96767.19;4205357;28;20016;-74
2022/11/18 00:22:11;;;;;;;8.23;5.68;;;;;;;4.39;100.00;96769.56;4205274;28;20044;-74
2022/11/18 00:24:11;;;;;;;9.18;6.28;;;;;;;4.39;100.00;96764.09;4204138;28;20067;-73
2022/11/18 00:26:13;;;;;;;9.65;6.38;;;;;;;4.38;100.00;96763.28;4204585;28;20534;-74
2022/11/18 00:28:13;;;;;;;9.23;6.05;;;;;;;4.38;100.00;96762.50;4204853;28;20028;-75
2022/11/18 00:30:14;;;;;;;10.80;6.68;;;;;;;4.38;100.00;96771.50;4205052;28;20057;-74
2022/11/18 00:32:14;;;;;;;8.00;5.72;;;;;;;4.39;100.00;96770.34;4204608;28;20456;-74
2022/11/18 00:34:16;;;;;;;7.10;5.55;;;;;;;4.40;100.00;96766.44;4204502;28;20067;-74
2022/11/18 00:36:17;;;;;;;11.25;6.40;;;;;;;4.41;100.00;96762.53;4204537;28;20127;-74
2022/11/18 00:38:17;;;;;;;11.80;6.00;;;;;;;4.41;100.00;96770.75;4205224;28;20076;-74
2022/11/18 00:40:17;;;;;;;8.35;5.30;;;;;;;4.44;100.00;96767.25;4204751;28;20054;-73
2022/11/18 00:44:37;;;;;;;6.72;5.32;;;;;;;4.45;100.00;96768.03;4204226;28;20105;-74
2022/11/18 00:46:37;;;;;;;7.18;5.60;;;;;;;4.42;100.00;96766.06;4204715;28;20127;-74
2022/11/18 00:48:38;;;;;;;7.95;6.18;;;;;;;4.44;100.00;96778.19;4204256;28;20039;-73
2022/11/18 00:50:38;;;;;;;9.98;6.57;;;;;;;4.40;100.00;96763.72;4204864;28;20232;-74
2022/11/18 00:52:39;;;;;;;8.48;6.13;;;;;;;4.40;100.00;96766.44;4203355;28;20035;-74
2022/11/18 00:54:40;;;;;;;9.18;6.28;;;;;;;4.39;100.00;96762.13;4204340;28;20236;-74
2022/11/18 00:56:40;;;;;;;9.82;6.30;;;;;;;4.38;100.00;96759.75;4204509;28;20134;-74
2022/11/18 00:58:40;;;;;;;8.13;6.35;;;;;;;4.41;100.00;96765.28;4204324;28;20454;-74
2022/11/18 01:00:45;;;;;;;6.45;5.40;;;;;;;4.41;100.00;96759.78;4204308;28;20502;-74
2022/11/18 01:02:45;;;;;;;6.63;5.07;;;;;;;4.35;100.00;96760.53;4203364;28;20543;-74
2022/11/18 01:04:46;;;;;;;6.03;5.43;;;;;;;4.33;100.00;96766.38;4204795;28;20470;-74
2022/11/18 01:06:46;;;;;;;9.25;5.55;;;;;;;4.31;100.00;96763.25;4204638;28;20130;-74
2022/11/18 01:08:46;;;;;;;7.97;5.55;;;;;;;4.28;100.00;96765.94;4203858;28;20036;-74
2022/11/18 01:10:47;;;;;;;7.25;5.63;;;;;;;4.30;100.00;96763.59;4204116;28;20028;-74
2022/11/18 01:13:48;;;;;;;9.10;5.72;;;;;;;4.31;100.00;96756.97;4203689;28;20569;-74
2022/11/18 01:15:17;;;;;;;8.20;5.60;;;;;;;4.33;100.00;96768.34;4190642;28;20044;-73
2022/11/18 01:17:18;;;;;;;7.60;5.30;;;;;;;4.29;100.00;96764.75;4204158;28;20044;-74
2022/11/18 01:19:18;;;;;;;6.30;4.90;;;;;;;4.28;100.00;96768.66;4204304;28;20035;-73
2022/11/18 01:21:19;;;;;;;7.07;5.55;;;;;;;4.30;100.00;96775.34;4204137;28;20040;-74
2022/11/18 01:23:19;;;;;;;10.38;6.47;;;;;;;4.30;100.00;96775.34;4201997;28;20096;-74
2022/11/18 01:25:20;;;;;;;7.18;5.35;;;;;;;4.29;100.00;96771.03;4204117;28;20345;-74
2022/11/18 01:27:20;;;;;;;7.32;4.93;;;;;;;4.31;100.00;96770.66;4203887;28;20133;-74
2022/11/18 01:29:20;;;;;;;5.95;4.45;;;;;;;4.29;100.00;96771.03;4204199;28;20532;-74
2022/11/18 01:31:21;;;;;;;7.50;4.75;;;;;;;4.30;100.00;96780.03;4203954;28;20040;-74
2022/11/18 01:33:21;;;;;;;6.63;4.95;;;;;;;4.31;100.00;96770.66;4201850;28;20400;-73
2022/11/18 01:35:21;;;;;;;8.55;5.25;;;;;;;4.30;100.00;96774.53;4204274;28;20688;-74
2022/11/18 01:37:22;;;;;;;8.88;5.40;;;;;;;4.32;100.00;96770.28;4203576;28;20047;-74
2022/11/18 01:39:22;;;;;;;6.85;5.00;;;;;;;4.34;100.00;96758.94;4204782;28;20048;-74
2022/11/18 01:41:25;;;;;;;8.57;5.90;;;;;;;4.36;100.00;96757.41;4203791;28;20078;-74
2022/11/18 01:43:45;;;;;;;6.95;5.13;;;;;;;4.37;100.00;96758.97;4202690;28;20040;-74
2022/11/18 01:45:48;;;;;;;7.00;5.10;;;;;;;4.40;100.00;96765.66;4203051;28;20444;-74
2022/11/18 01:48:09;;;;;;;7.78;5.53;;;;;;;4.42;100.00;96768.78;4203518;28;20632;-73
2022/11/18 01:50:11;;;;;;;9.43;5.20;;;;;;;4.42;100.00;96758.63;4203414;28;20063;-74
2022/11/18 01:52:13;;;;;;;6.40;5.05;;;;;;;4.44;100.00;96758.25;4203001;28;20507;-74
2022/11/18 01:54:22;;;;;;;6.03;4.88;;;;;;;4.43;100.00;96768.41;4202787;28;20384;-74
2022/11/18 01:56:29;;;;;;;8.23;5.57;;;;;;;4.42;100.00;96769.59;4203244;28;20040;-74
2022/11/18 01:58:38;;;;;;;5.80;4.80;;;;;;;4.38;100.00;96765.22;4203513;28;20048;-73
2022/11/18 02:00:38;;;;;;;7.93;5.38;;;;;;;4.37;100.00;96763.66;4203444;28;20072;-74
2022/11/18 02:02:39;;;;;;;7.93;5.20;;;;;;;4.38;100.00;96757.00;4202742;28;20515;-73
2022/11/18 02:04:43;;;;;;;5.90;4.50;;;;;;;4.40;100.00;96762.91;4203148;28;20055;-73
2022/11/18 02:06:44;;;;;;;7.07;4.82;;;;;;;4.39;100.00;96764.88;4202534;28;20486;-74
2022/11/18 02:08:45;;;;;;;7.50;5.60;;;;;;;4.43;100.00;96768.41;4203294;28;20147;-73
2022/11/18 02:10:45;;;;;;;7.72;5.60;;;;;;;4.41;100.00;96773.50;4203015;28;20116;-74
2022/11/18 02:12:47;;;;;;;8.90;6.07;;;;;;;4.41;100.00;96772.69;4202617;28;20040;-74
2022/11/18 02:14:48;;;;;;;8.50;5.45;;;;;;;4.41;100.00;96783.66;4202944;28;20036;-74
2022/11/18 02:17:07;;;;;;;6.75;5.25;;;;;;;4.43;100.00;96784.84;4202920;28;20070;-74
2022/11/18 02:19:37;;;;;;;8.75;5.53;;;;;;;4.46;100.00;96786.81;4203189;28;20132;-74
2022/11/18 02:22:09;;;;;;;7.93;5.70;;;;;;;4.48;100.00;96786.47;4202734;28;20044;-74
2022/11/18 02:24:34;;;;;;;11.38;5.65;;;;;;;4.47;100.00;96785.69;4201849;28;20036;-74
2022/11/18 02:26:56;;;;;;;6.28;4.47;;;;;;;4.45;100.00;96779.75;4203126;28;20045;-74
2022/11/18 02:29:18;;;;;;;7.18;4.97;;;;;;;4.48;100.00;96783.72;4202738;28;20133;-74
2022/11/18 02:31:28;;;;;;;7.25;4.72;;;;;;;4.49;100.00;96783.34;4203050;28;20545;-74
2022/11/18 02:33:34;;;;;;;7.85;5.45;;;;;;;4.47;100.00;96791.16;4202765;28;20212;-74
2022/11/18 02:36:00;;;;;;;8.00;5.35;;;;;;;4.44;100.00;96788.38;4203211;28;20077;-74
2022/11/18 02:38:06;;;;;;;7.63;5.72;;;;;;;4.41;100.00;96791.88;4201951;28;20515;-74
2022/11/18 02:40:10;;;;;;;6.97;5.65;;;;;;;4.36;100.00;96793.00;4202908;28;20028;-74
2022/11/18 02:42:13;;;;;;;9.00;5.70;;;;;;;4.39;100.00;96795.00;4202620;28;20167;-74
2022/11/18 02:44:16;;;;;;;8.25;5.72;;;;;;;4.38;100.00;96801.59;4201710;28;20035;-74
2022/11/18 02:46:23;;;;;;;6.32;5.03;;;;;;;4.37;100.00;96797.31;4202987;28;20077;-74
2022/11/18 02:48:27;;;;;;;6.72;5.80;;;;;;;4.38;100.00;96803.56;4202518;28;20044;-74
2022/11/18 02:50:29;;;;;;;7.13;5.40;;;;;;;4.37;100.00;96808.25;4202368;28;20101;-74
2022/11/18 02:52:32;;;;;;;7.57;5.90;;;;;;;4.39;100.00;96802.44;4202399;28;20392;-74
2022/11/18 02:54:37;;;;;;;7.80;5.18;;;;;;;4.35;100.00;96804.31;4202669;28;20460;-74
2022/11/18 02:56:37;;;;;;;7.80;5.45;;;;;;;4.37;100.00;96805.50;4202392;28;20075;-74
2022/11/18 02:58:38;;;;;;;9.73;4.93;;;;;;;4.38;100.00;96814.50;4202572;28;20706;-75
2022/11/18 03:00:38;;;;;;;9.05;6.65;;;;;;;4.36;100.00;96812.16;4203242;28;20374;-74
2022/11/18 03:02:47;;;;;;;12.45;7.70;;;;;;;4.37;100.00;96808.25;4201769;28;20162;-74
2022/11/18 03:04:51;;;;;;;9.18;6.75;;;;;;;4.39;100.00;96816.13;4201630;28;20098;-74
2022/11/18 03:06:58;;;;;;;10.38;7.03;;;;;;;4.38;100.00;96817.25;4202404;28;20071;-73
2022/11/18 03:09:13;;;;;;;10.00;6.55;;;;;;;4.39;100.00;96816.91;4202476;28;20036;-73
2022/11/18 03:11:13;;;;;;;10.00;6.55;;;;;;;4.41;100.00;96816.50;4202751;28;20630;-74
2022/11/18 03:13:22;;;;;;;7.57;5.85;;;;;;;4.39;100.00;96810.63;4201754;28;20075;-74
2022/11/18 03:15:28;;;;;;;9.70;6.25;;;;;;;4.45;100.00;96820.06;4202443;28;20313;-74
2022/11/18 03:18:05;;;;;;;9.38;5.70;;;;;;;4.43;100.00;96823.19;4202241;28;20500;-74
2022/11/18 03:20:13;;;;;;;10.02;6.55;;;;;;;4.41;100.00;96820.03;4167472;28;20047;-74
2022/11/18 03:22:22;;;;;;;9.90;6.78;;;;;;;4.42;100.00;96824.34;4205979;28;20036;-73
2022/11/18 03:24:31;;;;;;;14.07;9.23;;;;;;;4.39;100.00;96819.63;4205481;28;20099;-74
2022/11/18 03:26:37;;;;;;;13.05;8.32;;;;;;;4.39;100.00;96825.13;4205666;28;20357;-74
2022/11/18 03:28:47;;;;;;;15.52;8.93;;;;;;;4.43;100.00;96823.19;4206140;28;20409;-73
2022/11/18 03:31:05;;;;;;;14.82;8.70;;;;;;;4.45;100.00;96825.53;4206262;28;20058;-74
2022/11/18 03:33:11;;;;;;;16.88;9.25;;;;;;;4.47;100.00;96829.50;4204767;28;20040;-74
2022/11/18 03:35:17;;;;;;;18.20;10.13;;;;;;;4.50;100.00;96822.47;4205777;28;20476;-74
2022/11/18 03:37:20;;;;;;;17.00;9.45;;;;;;;4.51;100.00;96840.47;4205918;28;20055;-74
2022/11/18 03:39:22;;;;;;;22.65;10.13;;;;;;;4.50;100.00;96834.19;4205025;28;20103;-74
2022/11/18 03:41:25;;;;;;;16.25;8.88;;;;;;;4.49;100.00;96832.63;4205306;28;20127;-74
2022/11/18 03:43:35;;;;;;;17.40;9.60;;;;;;;4.49;100.00;96843.59;4204887;28;20098;-74
2022/11/18 03:45:46;;;;;;;20.60;9.93;;;;;;;4.52;100.00;96844.78;4205295;28;20040;-74
2022/11/18 03:48:11;;;;;;;15.80;8.70;;;;;;;4.51;100.00;96846.72;4205660;28;20379;-74
2022/11/18 03:50:17;;;;;;;14.85;8.20;;;;;;;4.53;100.00;96854.56;4205054;28;20036;-74
2022/11/18 03:52:22;;;;;;;15.43;9.27;;;;;;;4.52;100.00;96847.50;4205282;28;20038;-74
2022/11/18 03:54:29;;;;;;;14.93;8.43;;;;;;;4.54;100.00;96849.88;4205057;28;20503;-74
2022/11/18 03:56:35;;;;;;;16.23;8.60;;;;;;;4.52;100.00;96855.72;4205416;28;20078;-74
2022/11/18 03:58:46;;;;;;;19.52;9.73;;;;;;;4.53;100.00;96856.50;4205689;28;20056;-73
2022/11/18 04:00:51;;;;;;;13.70;8.23;;;;;;;4.51;100.00;96860.41;4205214;28;20122;-73
2022/11/18 04:02:51;;;;;;;19.95;9.50;;;;;;;4.55;100.00;96860.47;4203977;28;20044;-74
2022/11/18 04:04:54;;;;;;;13.82;8.07;;;;;;;4.55;100.00;96865.13;4206293;28;20134;-74
2022/11/18 04:07:02;;;;;;;17.42;8.77;;;;;;;4.53;100.00;96853.78;4203468;28;20055;-74
2022/11/18 04:09:10;;;;;;;19.08;8.73;;;;;;;4.48;100.00;96860.41;4204521;28;20048;-74
2022/11/18 04:12:01;;;;;;;16.00;8.77;;;;;;;4.50;100.00;96866.28;4205193;28;20066;-74
2022/11/18 04:13:37;;;;;;;14.80;8.05;;;;;;;4.47;100.00;96859.63;4202401;28;20040;-74
2022/11/18 04:15:40;;;;;;;26.38;8.88;;;;;;;4.45;100.00;96858.41;4204400;28;20074;-74
2022/11/18 04:17:44;;;;;;;28.05;8.55;;;;;;;4.45;100.00;96867.41;4203521;28;20500;-74
2022/11/18 04:19:44;;;;;;;15.65;8.27;;;;;;;4.48;100.00;96874.09;4204538;28;20052;-74
2022/11/18 04:21:47;;;;;;;19.63;8.32;;;;;;;4.45;100.00;96872.88;4205234;28;20166;-74
2022/11/18 04:23:47;;;;;;;;;;;;;;;4.44;100.00;96884.22;4205350;28;20462;-74
2022/11/18 04:25:47;;;;;;;18.13;8.50;;;;;;;4.43;100.00;96877.16;4205016;28;20111;-74
2022/11/18 04:27:48;;;;;;;16.63;8.43;;;;;;;4.40;100.00;96880.66;4204666;28;20085;-74
2022/11/18 04:29:48;;;;;;;22.65;8.85;;;;;;;4.38;100.00;96881.03;4204739;28;20349;-74
2022/11/18 04:31:48;;;;;;;15.27;8.05;;;;;;;4.36;100.00;96875.13;4204629;28;20131;-74
2022/11/18 04:33:49;;;;;;;16.88;9.45;;;;;;;4.40;100.00;96880.66;4204047;28;20135;-74
2022/11/18 04:35:49;;;;;;;19.00;7.75;;;;;;;4.40;100.00;96880.66;4204564;28;20046;-74
2022/11/18 04:37:49;;;;;;;13.68;8.07;;;;;;;4.41;100.00;96883.03;4204693;28;20093;-74
2022/11/18 04:39:50;;;;;;;14.75;8.65;;;;;;;4.39;100.00;96890.06;4204958;28;20093;-74
2022/11/18 04:41:56;;;;;;;21.63;8.90;;;;;;;4.35;100.00;96889.22;4204394;28;20044;-74
2022/11/18 04:43:57;;;;;;;16.33;9.38;;;;;;;4.36;100.00;96894.31;4203995;28;20048;-74
2022/11/18 04:45:57;;;;;;;14.38;8.07;;;;;;;4.38;100.00;96899.41;4204027;28;20109;-74
2022/11/18 04:47:57;;;;;;;17.27;8.88;;;;;;;4.36;100.00;96897.03;4204330;28;20456;-74
2022/11/18 04:49:58;;;;;;;12.40;8.25;;;;;;;4.36;100.00;96901.72;4204467;28;20068;-74
2022/11/18 04:51:58;;;;;;;14.43;8.95;;;;;;;4.39;100.00;96909.22;4204400;28;20102;-74
2022/11/18 04:53:58;;;;;;;15.68;7.57;;;;;;;4.41;100.00;96912.34;4219612;28;20334;-73
2022/11/18 04:56:06;;;;;;;22.10;10.65;;;;;;;4.41;100.00;96902.19;4204707;28;20036;-73
2022/11/18 04:58:06;;;;;;;16.55;9.88;;;;;;;4.41;100.00;96895.94;4203605;28;20531;-74
2022/11/18 05:00:07;;;;;;;14.48;9.43;;;;;;;4.41;100.00;96909.63;4203783;28;20066;-74
2022/11/18 05:02:08;;;;;;;19.17;9.23;;;;;;;4.38;100.00;96902.94;4186593;28;20029;-74
2022/11/18 05:04:12;;;;;;;14.70;8.35;;;;;;;4.38;100.00;96911.13;4204442;28;20043;-73
2022/11/18 05:06:12;;;;;;;23.08;8.65;;;;;;;4.35;100.00;96908.38;4204225;28;20039;-73
2022/11/18 05:08:12;;;;;;;13.57;8.65;;;;;;;4.34;100.00;96915.81;4204409;28;20586;-74
2022/11/18 05:10:13;;;;;;;15.00;8.25;;;;;;;4.34;100.00;96917.75;4204437;28;20028;-74
2022/11/18 05:14:33;;;;;;;103.80;12.68;;;;;;;4.32;100.00;96906.41;4204243;28;20051;-74
2022/11/18 05:16:34;;;;;;;14.27;8.65;;;;;;;4.31;100.00;96919.31;4204871;28;20040;-73
2022/11/18 05:18:34;;;;;;;14.82;8.85;;;;;;;4.33;100.00;96910.72;4204370;28;20432;-74
2022/11/18 05:20:37;;;;;;;14.25;8.60;;;;;;;4.31;100.00;96915.78;4204119;28;20079;-74
2022/11/18 05:22:37;;;;;;;22.13;10.20;;;;;;;4.31;100.00;96915.78;4203823;28;20104;-74
2022/11/18 05:24:38;;;;;;;19.02;10.05;;;;;;;4.32;100.00;96922.81;4204232;28;20515;-74
2022/11/18 05:26:38;;;;;;;22.67;10.48;;;;;;;4.33;100.00;96932.63;4204099;28;20468;-74
2022/11/18 05:28:38;;;;;;;16.40;9.65;;;;;;;4.31;100.00;96922.03;4204183;28;20123;-73
2022/11/18 05:30:39;;;;;;;30.33;11.02;;;;;;;4.32;100.00;96920.09;4203841;28;20131;-73
2022/11/18 05:32:39;;;;;;;31.77;11.30;;;;;;;4.32;100.00;96926.34;4202864;28;20389;-74
2022/11/18 05:34:40;;;;;;;18.13;9.85;;;;;;;4.33;100.00;96922.44;4203985;28;20101;-74
2022/11/18 05:36:41;;;;;;;26.73;10.18;;;;;;;4.33;100.00;96927.91;4204110;28;20107;-74
2022/11/18 05:38:42;;;;;;;19.13;10.20;;;;;;;4.28;100.00;96921.97;4203821;28;20457;-74
2022/11/18 05:40:42;;;;;;;34.58;12.52;;;;;;;4.31;100.00;96926.72;4203718;28;20046;-74
2022/11/18 05:45:02;;;;;;;15.43;9.75;;;;;;;4.32;100.00;96931.81;4203231;28;20367;-74
2022/11/18 05:47:02;;;;;;;18.83;10.23;;;;;;;4.30;100.00;96936.09;4203752;28;20488;-74
2022/11/18 05:49:02;;;;;;;24.42;10.95;;;;;;;4.30;100.00;96941.56;4204334;28;20626;-74
2022/11/18 05:51:03;;;;;;;59.72;12.68;;;;;;;4.29;100.00;96948.19;4202645;28;20056;-73
2022/11/18 05:53:04;;;;;;;33.47;10.85;;;;;;;4.32;100.00;96942.78;4200469;28;20100;-74
2022/11/18 05:55:05;;;;;;;15.65;9.30;;;;;;;4.31;100.00;96946.69;4124574;27;20424;-73
2022/11/18 05:57:05;;;;;;;19.02;10.68;;;;;;;4.30;100.00;96947.03;4189845;28;20036;-73
2022/11/18 05:59:06;;;;;;;20.17;11.43;;;;;;;4.29;100.00;96951.72;4203025;28;20139;-73
2022/11/18 06:01:08;;;;;;;19.83;10.48;;;;;;;4.31;100.00;96946.69;4203340;28;20097;-74
2022/11/18 06:03:18;;;;;;;25.77;11.77;;;;;;;4.29;100.00;96943.50;4203883;28;20413;-74
2022/11/18 06:05:20;;;;;;;46.15;11.60;;;;;;;4.30;100.00;96953.28;4203099;28;20044;-73
2022/11/18 06:07:43;;;;;;;21.63;11.70;;;;;;;4.31;100.00;96952.16;4203543;28;20047;-74
2022/11/18 06:09:47;;;;;;;51.35;12.95;;;;;;;4.28;100.00;96963.06;4202716;28;20048;-74
2022/11/18 06:11:53;;;;;;;24.20;13.07;;;;;;;4.28;100.00;96960.31;4202762;28;20036;-74
2022/11/18 06:14:02;;;;;;;53.20;14.00;;;;;;;4.23;100.00;96967.72;4201723;28;20063;-74
2022/11/18 06:16:02;;;;;;;32.67;13.05;;;;;;;4.27;100.00;96972.44;4201907;28;20047;-74
2022/11/18 06:18:26;;;;;;;46.92;14.80;;;;;;;4.19;100.00;96971.56;4203333;28;20375;-74
2022/11/18 06:20:27;;;;;;;27.08;13.95;;;;;;;4.20;100.00;96964.91;4201704;28;20462;-74
2022/11/18 06:22:27;;;;;;;32.70;12.95;;;;;;;4.18;100.00;96968.03;4201669;28;20047;-74
2022/11/18 06:24:28;;;;;;;42.00;14.38;;;;;;;4.14;100.00;96961.75;4183676;28;20052;-74
2022/11/18 06:26:28;;;;;;;69.18;15.45;;;;;;;4.17;100.00;96982.09;4202518;28;20070;-74
2022/11/18 06:28:29;;;;;;;60.65;15.70;;;;;;;4.12;100.00;96982.41;4203074;28;20261;-73
2022/11/18 06:30:29;;;;;;;28.08;12.95;;;;;;;4.12;100.00;96987.88;4202329;28;20040;-73
2022/11/18 06:32:30;;;;;;;28.33;14.32;;;;;;;4.11;100.00;96994.53;4202473;28;20097;-74
2022/11/18 06:34:30;;;;;;;38.00;14.35;;;;;;;4.10;100.00;96993.72;4203216;28;20080;-74
2022/11/18 06:36:30;;;;;;;60.25;15.00;;;;;;;4.05;100.00;96996.78;4202878;28;20111;-73
2022/11/18 06:38:31;;;;;;;35.80;14.30;;;;;;;4.07;100.00;96999.19;4204260;28;20046;-74
2022/11/18 06:40:31;;;;;;;25.13;12.77;;;;;;;4.07;100.00;96999.19;4202725;28;20131;-73
2022/11/18 06:44:50;;;;;;;25.23;12.52;;;;;;;4.03;100.00;97004.59;4202662;28;20046;-74
2022/11/18 06:46:56;;;;;;;28.42;11.88;;;;;;;3.95;100.00;96998.22;4203092;28;20122;-73
2022/11/18 06:48:58;;;;;;;25.60;12.95;;;;;;;4.03;100.00;97007.31;4203225;28;20384;-73
2022/11/18 06:50:58;;;;;;;26.20;12.13;;;;;;;3.99;100.00;97011.19;4202913;28;20052;-74
2022/11/18 06:53:00;;;;;;;28.92;12.55;;;;;;;3.96;100.00;97018.16;4201596;28;20958;-74
2022/11/18 06:55:00;;;;;;;27.60;12.45;;;;;;;3.95;100.00;97025.59;4202767;28;20036;-74
2022/11/18 06:57:00;;;;;;;26.45;12.50;;;;;;;3.93;100.00;97024.38;4202658;28;20060;-74
2022/11/18 06:59:01;;;;;;;28.88;12.98;;;;;;;3.90;100.00;97014.97;4202409;28;20540;-73
2022/11/18 07:01:22;;;;;;;26.52;11.52;;;;;;;3.93;100.00;97019.72;4202941;28;20047;-73
2022/11/18 07:03:23;;;;;;;22.02;11.93;;;;;;;3.93;100.00;97027.13;4203088;28;20047;-74
2022/11/18 07:05:23;;;;;;;25.02;12.48;;;;;;;3.86;100.00;97019.59;4202735;28;20384;-74
2022/11/18 07:07:23;;;;;;;37.78;14.00;;;;;;;3.82;100.00;97023.47;4202582;28;20040;-74
2022/11/18 07:09:24;;;;;;;26.67;12.75;;;;;;;3.83;100.00;97027.78;4202937;28;20036;-73
2022/11/18 07:11:25;;;;;;;26.55;12.90;;;;;;;3.87;100.00;97034.06;4202212;28;20072;-74
2022/11/18 07:13:26;;;;;;;28.98;13.55;;;;;;;3.86;100.00;97025.06;4201881;28;20222;-73
2022/11/18 07:15:26;;;;;;;31.70;14.75;;;;;;;3.83;100.00;97030.50;4202539;28;20392;-73
2022/11/18 07:17:29;;;;;;;27.98;13.65;;;;;;;3.85;100.00;97033.66;4202762;28;20083;-74
2022/11/18 07:19:29;;;;;;;26.05;12.82;;;;;;;3.82;100.00;97040.66;4202706;28;20123;-73
2022/11/18 07:21:29;;;;;;;38.42;13.48;;;;;;;3.82;100.00;97048.88;4202591;28;20068;-73
2022/11/18 07:23:31;;;;;;;25.80;12.70;;;;;;;3.84;100.00;97053.97;4201795;28;20484;-74
2022/11/18 07:25:31;;;;;;;26.33;12.77;;;;;;;3.86;100.00;97060.66;4202319;28;20036;-73
2022/11/18 07:27:32;;;;;;;26.10;12.40;;;;;;;3.89;100.00;97062.66;4202513;28;20101;-74
2022/11/18 07:29:32;;;;;;;24.85;11.30;;;;;;;3.85;100.00;97059.06;4202207;28;20060;-73
2022/11/18 07:31:34;;;;;;;22.25;10.65;;;;;;;3.80;100.00;97053.91;4202993;28;20404;-73
2022/11/18 07:33:35;;;;;;;21.33;9.50;;;;;;;3.76;100.00;97060.50;4201777;28;20044;-74
2022/11/18 07:35:35;;;;;;;18.38;9.25;;;;;;;3.76;100.00;97064.00;4202464;28;20149;-73
2022/11/18 07:37:36;;;;;;;19.98;10.63;;;;;;;3.78;100.00;97072.63;4202653;28;20137;-73
2022/11/18 07:39:36;;;;;;;17.75;9.40;;;;;;;3.78;100.00;97069.91;4202277;28;20693;-73
2022/11/18 07:41:38;;;;;;;15.73;9.52;;;;;;;3.80;100.00;97069.53;4202616;28;20058;-73
2022/11/18 07:43:39;;;;;;;17.83;9.52;;;;;;;3.79;100.00;97073.44;4201656;28;20490;-73
2022/11/18 07:45:39;;;;;;;15.10;8.90;;;;;;;3.75;100.00;97072.59;4202785;28;20044;-73
2022/11/18 07:47:40;;;;;;;18.05;8.85;;;;;;;3.76;100.00;97074.16;4202158;28;20040;-74
2022/11/18 07:49:40;;;;;;;14.90;8.60;;;;;;;3.79;100.00;97079.69;4202495;28;20052;-73
2022/11/18 07:51:40;;;;;;;17.17;8.90;;;;;;;3.78;100.00;97082.78;4202691;28;21115;-73
2022/11/18 07:53:41;;;;;;;19.02;9.27;;;;;;;3.76;100.00;97088.63;4201435;28;20079;-73
2022/11/18 07:55:41;;;;;;;16.80;8.63;;;;;;;3.75;100.00;97089.78;4202164;28;20611;-74
2022/11/18 07:57:42;;;;;;;16.30;9.48;;;;;;;3.76;100.00;97094.09;4202398;28;20044;-74
2022/11/18 07:59:42;;;;;;;15.30;8.88;;;;;;;3.75;100.00;97098.00;4202676;28;20039;-74
2022/11/18 08:01:42;;;;;;;15.15;8.27;;;;;;;3.76;100.00;97096.84;4202185;28;20032;-74
2022/11/18 08:03:43;;;;;;;17.15;9.02;;;;;;;3.78;100.00;97097.25;4202500;28;20448;-73
2022/11/18 08:05:44;;;;;;;18.00;9.18;;;;;;;3.76;100.00;97098.78;4204579;28;20044;-74
2022/11/18 08:07:44;;;;;;;16.25;8.73;;;;;;;3.77;100.00;97097.63;4204994;28;20139;-73
2022/11/18 08:09:44;;;;;;;16.85;9.85;;;;;;;3.75;100.00;97092.53;4205163;28;20490;-73
2022/11/18 08:11:45;;;;;;;13.32;8.02;;;;;;;3.75;100.00;97103.47;4205872;28;20064;-73
2022/11/18 08:13:45;;;;;;;14.40;7.70;;;;;;;3.72;100.00;97101.44;4204746;28;20166;-74
2022/11/18 08:15:45;;;;;;;14.20;8.30;;;;;;;3.69;100.00;97099.47;4205284;28;20063;-74
2022/11/18 08:17:46;;;;;;;12.73;6.75;;;;;;;3.69;100.00;97109.63;4205081;28;20118;-74
2022/11/18 08:19:47;;;;;;;12.02;7.45;;;;;;;3.70;100.00;97111.19;4205504;28;20157;-73
2022/11/18 08:21:47;;;;;;;10.63;6.40;;;;;;;3.67;100.00;97105.31;4205288;28;20076;-74
2022/11/18 08:23:53;;;;;;;13.00;6.63;;;;;;;3.67;100.00;97107.25;4204184;28;20040;-74
2022/11/18 08:26:01;;;;;;;11.85;7.50;;;;;;;3.65;100.00;97107.63;4205008;28;20048;-74
2022/11/18 08:28:02;;;;;;;9.13;6.45;;;;;;;3.65;100.00;97112.31;4204603;28;20541;-74
2022/11/18 08:30:02;;;;;;;9.18;6.35;;;;;;;3.68;100.00;97114.28;4205549;28;20031;-74
2022/11/18 08:32:04;;;;;;;10.10;6.35;;;;;;;3.66;100.00;97117.41;4204743;28;20024;-74
2022/11/18 08:34:06;;;;;;;11.98;6.50;;;;;;;3.65;100.00;97125.97;4204046;28;20036;-73
2022/11/18 08:36:09;;;;;;;10.50;5.72;;;;;;;3.64;100.00;97127.09;4204974;28;20020;-74
2022/11/18 08:38:09;;;;;;;11.75;6.90;;;;;;;3.60;100.00;97129.78;4205785;28;20382;-74
2022/11/18 08:40:10;;;;;;;15.63;7.65;;;;;;;3.57;100.00;97129.75;4204598;28;20111;-74
2022/11/18 08:42:10;;;;;;;12.73;6.63;;;;;;;3.58;100.00;97136.78;4205109;28;20028;-75
2022/11/18 08:44:13;;;;;;;14.05;8.55;;;;;;;3.58;100.00;97137.59;4203850;28;20028;-74
2022/11/18 08:46:13;;;;;;;14.60;7.07;;;;;;;3.54;100.00;97136.72;4205075;28;20024;-74
2022/11/18 08:48:13;;;;;;;13.60;7.60;;;;;;;3.54;100.00;97146.88;4204642;28;20337;-74
2022/11/18 08:50:14;;;;;;;12.88;8.07;;;;;;;3.54;100.00;97146.88;4204497;28;20028;-74
2022/11/18 08:52:14;;;;;;;11.90;7.22;;;;;;;3.51;100.00;97142.13;4204445;28;20406;-74
2022/11/18 08:54:15;;;;;;;14.73;7.82;;;;;;;3.52;100.00;97151.91;4203537;28;20048;-74
2022/11/18 08:56:17;;;;;;;13.50;8.02;;;;;;;3.52;100.00;97140.97;4204758;28;20024;-73
2022/11/18 08:58:18;;;;;;;13.50;7.78;;;;;;;3.52;100.00;97149.97;4204290;28;20431;-74
2022/11/18 09:00:18;;;;;;;14.23;7.85;;;;;;;3.54;100.00;97142.19;4204710;28;20024;-74
2022/11/18 09:02:21;;;;;;;17.02;8.88;;;;;;;3.56;100.00;97148.09;4204454;28;20020;-74
2022/11/18 09:04:21;;;;;;;;;;;;;;;3.57;100.00;97159.84;4205461;28;20056;-74
2022/11/18 09:06:23;;;;;;;18.27;10.40;;;;;;;3.54;100.00;97152.34;4204585;28;20383;-74
2022/11/18 09:08:25;;;;;;;23.92;13.15;;;;;;;3.48;100.00;97149.13;4204338;28;20040;-74
2022/11/18 09:10:25;;;;;;;22.42;12.38;;;;;;;3.47;100.00;97154.94;4204302;28;20040;-73
2022/11/18 09:12:25;;;;;;;20.05;11.02;;;;;;;3.46;100.00;97150.63;4203885;28;20421;-73
2022/11/18 09:14:26;;;;;;;23.20;11.70;;;;;;;3.42;100.00;97145.09;4204389;28;20207;-74
2022/11/18 09:16:29;;;;;;;21.67;12.15;;;;;;;3.44;100.00;97156.47;4204372;28;20079;-73
2022/11/18 09:18:30;;;;;;;16.25;10.35;;;;;;;3.45;100.00;97162.72;4203776;28;20058;-74
2022/11/18 09:20:30;;;;;;;15.63;8.75;;;;;;;3.40;100.00;97163.03;4204229;28;20075;-73
2022/11/18 09:22:31;;;;;;;13.52;8.02;;;;;;;3.38;100.00;97166.91;4203669;28;20108;-74
2022/11/18 09:24:32;;;;;;;19.70;10.27;;;;;;;3.36;100.00;97163.75;4204194;28;20384;-74
2022/11/18 09:26:32;;;;;;;16.80;9.18;;;;;;;3.37;100.00;97175.47;4204490;28;20042;-73
2022/11/18 09:28:33;;;;;;;14.95;8.57;;;;;;;3.35;100.00;97166.84;4204251;28;20292;-73
2022/11/18 09:30:33;;;;;;;15.00;9.25;;;;;;;3.36;100.00;97180.16;4204214;28;20242;-74
2022/11/18 09:32:33;;;;;;;14.00;8.13;;;;;;;3.40;100.00;97180.22;4203846;28;20130;-74
2022/11/18 09:34:34;;;;;;;14.13;7.72;;;;;;;3.42;100.00;97179.88;4203877;28;20043;-73
2022/11/18 09:36:35;;;;;;;15.45;7.70;;;;;;;3.45;100.00;97182.66;4186117;28;20051;-73
2022/11/18 09:38:35;;;;;;;13.73;7.82;;;;;;;3.41;100.00;97191.97;4203886;28;20040;-73
2022/11/18 09:40:49;;;;;;;13.35;8.13;;;;;;;3.40;100.00;97182.97;4185542;28;20041;-74
2022/11/18 09:43:02;;;;;;;17.90;9.07;;;;;;;3.36;100.00;97187.56;4203150;28;20044;-74
2022/11/18 09:45:09;;;;;;;18.25;9.52;;;;;;;3.38;100.00;97190.72;4203998;28;20032;-73
2022/11/18 09:47:12;;;;;;;19.60;9.38;;;;;;;3.34;100.00;97185.19;4204357;28;20051;-73
2022/11/18 09:49:23;;;;;;;15.93;9.07;;;;;;;3.37;100.00;97192.66;4203945;28;20101;-74